Kim Morgan Mortensen har fløyet solo PDF Skriv ut E-post
Skrevet av Dmytro Yakovenko   
fredag 28. juli 2017 22:41

Kim Morgan Mortensen fløy soloutsjekk og sin første solotur i dag, 31. oktober 2017. Soloutsjekken ble unnagjort på litt over en time, deretter ble Kim sendt på sine første solo landingsrunder av Assisterende skolesjef Hallgeir Olsen. Skolen og Styret gratulerer Kim med første solotur og ønsker han lykke til med resten av skoleprogrammet. Hovedinstruktøren har vært Dmytro Yakovenko.


Sist oppdatert tirsdag 31. oktober 2017 22:43
 
 
METAR
2019/01/18 20:50 ENCN 182050Z 20008KT CAVOK 01/M03 Q1014
TAF
2019/01/18 18:36 TAF TAF ENCN 181700Z 1818/1822 29005KT CAVOK
LN-KFK
Til service
VFR dag
08:11 - 17:06
Brannvakt
Inaktiv
Banner
Banner
Banner
Banner
Banner